sensor_id;sensor_type;location;lat;lon;timestamp;P1;durP1;ratioP1;P2;durP2;ratioP2
8986;SDS011;4529;51.360;12.474;2024-01-25T00:01:39;9.53;;;2.53;;
8986;SDS011;4529;51.360;12.474;2024-01-25T00:06:43;8.27;;;2.43;;
8986;SDS011;4529;51.360;12.474;2024-01-25T00:11:46;10.73;;;2.30;;
8986;SDS011;4529;51.360;12.474;2024-01-25T00:16:50;10.97;;;2.00;;
8986;SDS011;4529;51.360;12.474;2024-01-25T00:21:53;11.43;;;2.50;;
8986;SDS011;4529;51.360;12.474;2024-01-25T00:26:57;8.17;;;2.07;;
8986;SDS011;4529;51.360;12.474;2024-01-25T00:32:02;10.37;;;2.40;;
8986;SDS011;4529;51.360;12.474;2024-01-25T00:37:05;8.33;;;2.40;;
8986;SDS011;4529;51.360;12.474;2024-01-25T00:42:08;8.40;;;2.40;;
8986;SDS011;4529;51.360;12.474;2024-01-25T00:47:12;10.60;;;2.53;;
8986;SDS011;4529;51.360;12.474;2024-01-25T00:52:15;8.57;;;2.40;;
8986;SDS011;4529;51.360;12.474;2024-01-25T00:57:19;12.87;;;2.33;;
8986;SDS011;4529;51.360;12.474;2024-01-25T01:02:22;11.17;;;2.80;;
8986;SDS011;4529;51.360;12.474;2024-01-25T01:07:26;6.63;;;2.20;;
8986;SDS011;4529;51.360;12.474;2024-01-25T01:12:31;11.43;;;2.40;;
8986;SDS011;4529;51.360;12.474;2024-01-25T01:17:34;6.53;;;1.97;;
8986;SDS011;4529;51.360;12.474;2024-01-25T01:22:38;11.67;;;2.60;;
8986;SDS011;4529;51.360;12.474;2024-01-25T01:27:41;8.13;;;2.87;;
8986;SDS011;4529;51.360;12.474;2024-01-25T01:32:45;8.73;;;2.30;;
8986;SDS011;4529;51.360;12.474;2024-01-25T01:37:48;14.23;;;3.00;;
8986;SDS011;4529;51.360;12.474;2024-01-25T01:42:58;10.10;;;2.27;;
8986;SDS011;4529;51.360;12.474;2024-01-25T01:48:02;11.97;;;2.43;;
8986;SDS011;4529;51.360;12.474;2024-01-25T01:53:05;10.03;;;2.77;;
8986;SDS011;4529;51.360;12.474;2024-01-25T01:58:08;7.67;;;2.90;;
8986;SDS011;4529;51.360;12.474;2024-01-25T02:03:12;10.67;;;2.63;;
8986;SDS011;4529;51.360;12.474;2024-01-25T02:08:15;10.60;;;2.50;;
8986;SDS011;4529;51.360;12.474;2024-01-25T02:13:19;12.10;;;2.73;;
8986;SDS011;4529;51.360;12.474;2024-01-25T02:18:22;10.17;;;2.40;;
8986;SDS011;4529;51.360;12.474;2024-01-25T02:23:26;14.63;;;2.43;;
8986;SDS011;4529;51.360;12.474;2024-01-25T02:28:29;10.63;;;2.60;;
8986;SDS011;4529;51.360;12.474;2024-01-25T02:33:33;10.90;;;2.83;;
8986;SDS011;4529;51.360;12.474;2024-01-25T02:38:36;11.40;;;2.70;;
8986;SDS011;4529;51.360;12.474;2024-01-25T02:43:40;9.70;;;2.37;;
8986;SDS011;4529;51.360;12.474;2024-01-25T02:48:44;16.50;;;2.70;;
8986;SDS011;4529;51.360;12.474;2024-01-25T02:53:49;9.20;;;2.43;;
8986;SDS011;4529;51.360;12.474;2024-01-25T02:58:53;10.53;;;2.50;;
8986;SDS011;4529;51.360;12.474;2024-01-25T03:03:56;8.00;;;2.57;;
8986;SDS011;4529;51.360;12.474;2024-01-25T03:09:00;13.37;;;2.53;;
8986;SDS011;4529;51.360;12.474;2024-01-25T03:14:03;9.23;;;2.40;;
8986;SDS011;4529;51.360;12.474;2024-01-25T03:19:06;11.40;;;2.60;;
8986;SDS011;4529;51.360;12.474;2024-01-25T03:24:10;7.80;;;2.67;;
8986;SDS011;4529;51.360;12.474;2024-01-25T03:29:13;8.73;;;2.47;;
8986;SDS011;4529;51.360;12.474;2024-01-25T03:34:17;11.33;;;2.63;;
8986;SDS011;4529;51.360;12.474;2024-01-25T03:39:20;6.80;;;2.30;;
8986;SDS011;4529;51.360;12.474;2024-01-25T03:44:24;8.73;;;2.47;;
8986;SDS011;4529;51.360;12.474;2024-01-25T03:49:28;9.27;;;2.30;;
8986;SDS011;4529;51.360;12.474;2024-01-25T03:54:32;8.23;;;2.60;;
8986;SDS011;4529;51.360;12.474;2024-01-25T03:59:35;9.30;;;2.23;;
8986;SDS011;4529;51.360;12.474;2024-01-25T04:04:39;10.20;;;2.70;;
8986;SDS011;4529;51.360;12.474;2024-01-25T04:09:42;11.00;;;2.70;;
8986;SDS011;4529;51.360;12.474;2024-01-25T04:14:46;8.87;;;2.40;;
8986;SDS011;4529;51.360;12.474;2024-01-25T04:19:50;6.93;;;2.53;;
8986;SDS011;4529;51.360;12.474;2024-01-25T04:24:53;11.13;;;2.50;;
8986;SDS011;4529;51.360;12.474;2024-01-25T04:29:57;16.10;;;2.90;;
8986;SDS011;4529;51.360;12.474;2024-01-25T04:35:00;11.83;;;2.57;;
8986;SDS011;4529;51.360;12.474;2024-01-25T04:40:04;10.90;;;2.53;;
8986;SDS011;4529;51.360;12.474;2024-01-25T04:45:07;9.13;;;2.60;;
8986;SDS011;4529;51.360;12.474;2024-01-25T04:50:11;10.17;;;2.57;;
8986;SDS011;4529;51.360;12.474;2024-01-25T04:55:14;11.60;;;2.70;;
8986;SDS011;4529;51.360;12.474;2024-01-25T05:00:20;11.37;;;2.50;;
8986;SDS011;4529;51.360;12.474;2024-01-25T05:05:22;10.17;;;2.20;;
8986;SDS011;4529;51.360;12.474;2024-01-25T05:10:26;11.33;;;2.43;;
8986;SDS011;4529;51.360;12.474;2024-01-25T05:15:29;9.67;;;2.40;;
8986;SDS011;4529;51.360;12.474;2024-01-25T05:20:33;7.97;;;2.20;;
8986;SDS011;4529;51.360;12.474;2024-01-25T05:25:37;9.57;;;1.80;;
8986;SDS011;4529;51.360;12.474;2024-01-25T05:30:41;10.53;;;2.47;;
8986;SDS011;4529;51.360;12.474;2024-01-25T05:35:44;11.30;;;2.53;;
8986;SDS011;4529;51.360;12.474;2024-01-25T05:40:48;9.37;;;2.30;;
8986;SDS011;4529;51.360;12.474;2024-01-25T05:45:51;6.43;;;2.17;;
8986;SDS011;4529;51.360;12.474;2024-01-25T05:50:55;9.03;;;2.33;;
8986;SDS011;4529;51.360;12.474;2024-01-25T05:55:59;10.43;;;2.10;;
8986;SDS011;4529;51.360;12.474;2024-01-25T06:01:03;6.93;;;2.00;;
8986;SDS011;4529;51.360;12.474;2024-01-25T06:06:06;6.10;;;1.80;;
8986;SDS011;4529;51.360;12.474;2024-01-25T06:11:09;13.00;;;2.10;;
8986;SDS011;4529;51.360;12.474;2024-01-25T06:16:13;9.83;;;2.20;;
8986;SDS011;4529;51.360;12.474;2024-01-25T06:21:17;11.37;;;2.00;;
8986;SDS011;4529;51.360;12.474;2024-01-25T06:26:20;7.60;;;1.77;;
8986;SDS011;4529;51.360;12.474;2024-01-25T06:31:24;7.40;;;2.10;;
8986;SDS011;4529;51.360;12.474;2024-01-25T06:36:27;6.53;;;1.80;;
8986;SDS011;4529;51.360;12.474;2024-01-25T06:41:31;5.13;;;1.43;;
8986;SDS011;4529;51.360;12.474;2024-01-25T06:46:34;8.60;;;2.10;;
8986;SDS011;4529;51.360;12.474;2024-01-25T06:51:38;6.27;;;2.33;;
8986;SDS011;4529;51.360;12.474;2024-01-25T06:56:42;8.57;;;2.10;;
8986;SDS011;4529;51.360;12.474;2024-01-25T07:01:45;7.83;;;2.10;;
8986;SDS011;4529;51.360;12.474;2024-01-25T07:06:49;5.90;;;1.47;;
8986;SDS011;4529;51.360;12.474;2024-01-25T07:11:52;6.70;;;1.77;;
8986;SDS011;4529;51.360;12.474;2024-01-25T07:16:56;13.57;;;2.10;;
8986;SDS011;4529;51.360;12.474;2024-01-25T07:22:00;9.53;;;1.93;;
8986;SDS011;4529;51.360;12.474;2024-01-25T07:27:03;7.73;;;2.10;;
8986;SDS011;4529;51.360;12.474;2024-01-25T07:32:10;6.90;;;2.00;;
8986;SDS011;4529;51.360;12.474;2024-01-25T07:37:13;7.30;;;2.03;;
8986;SDS011;4529;51.360;12.474;2024-01-25T07:42:17;11.47;;;2.37;;
8986;SDS011;4529;51.360;12.474;2024-01-25T07:47:21;8.80;;;2.20;;
8986;SDS011;4529;51.360;12.474;2024-01-25T07:52:26;7.23;;;1.97;;
8986;SDS011;4529;51.360;12.474;2024-01-25T07:57:29;11.03;;;2.30;;
8986;SDS011;4529;51.360;12.474;2024-01-25T08:02:33;7.10;;;2.00;;
8986;SDS011;4529;51.360;12.474;2024-01-25T08:07:36;7.73;;;2.17;;
8986;SDS011;4529;51.360;12.474;2024-01-25T08:12:41;4.63;;;1.67;;
8986;SDS011;4529;51.360;12.474;2024-01-25T08:17:45;4.37;;;1.60;;
8986;SDS011;4529;51.360;12.474;2024-01-25T08:22:49;8.37;;;2.10;;
8986;SDS011;4529;51.360;12.474;2024-01-25T08:27:52;6.77;;;2.13;;
8986;SDS011;4529;51.360;12.474;2024-01-25T08:33:00;7.30;;;2.00;;
8986;SDS011;4529;51.360;12.474;2024-01-25T08:38:03;8.43;;;2.37;;
8986;SDS011;4529;51.360;12.474;2024-01-25T08:43:08;9.57;;;2.40;;
8986;SDS011;4529;51.360;12.474;2024-01-25T08:48:12;4.83;;;2.00;;
8986;SDS011;4529;51.360;12.474;2024-01-25T08:53:16;6.03;;;2.30;;
8986;SDS011;4529;51.360;12.474;2024-01-25T08:58:20;12.13;;;2.63;;
8986;SDS011;4529;51.360;12.474;2024-01-25T09:03:23;5.30;;;2.10;;
8986;SDS011;4529;51.360;12.474;2024-01-25T09:08:27;3.40;;;1.90;;
8986;SDS011;4529;51.360;12.474;2024-01-25T09:13:31;6.97;;;1.97;;
8986;SDS011;4529;51.360;12.474;2024-01-25T09:18:35;7.17;;;2.80;;
8986;SDS011;4529;51.360;12.474;2024-01-25T09:23:39;12.97;;;4.60;;
8986;SDS011;4529;51.360;12.474;2024-01-25T09:28:43;14.10;;;5.43;;
8986;SDS011;4529;51.360;12.474;2024-01-25T09:33:47;4.70;;;2.23;;
8986;SDS011;4529;51.360;12.474;2024-01-25T09:38:51;7.33;;;2.43;;
8986;SDS011;4529;51.360;12.474;2024-01-25T09:43:54;7.90;;;2.70;;
8986;SDS011;4529;51.360;12.474;2024-01-25T09:48:58;8.33;;;2.40;;
8986;SDS011;4529;51.360;12.474;2024-01-25T09:54:02;7.17;;;2.80;;
8986;SDS011;4529;51.360;12.474;2024-01-25T09:59:09;10.30;;;2.80;;
8986;SDS011;4529;51.360;12.474;2024-01-25T10:04:12;7.07;;;2.10;;
8986;SDS011;4529;51.360;12.474;2024-01-25T10:09:16;6.80;;;2.10;;
8986;SDS011;4529;51.360;12.474;2024-01-25T10:14:20;7.27;;;2.50;;
8986;SDS011;4529;51.360;12.474;2024-01-25T10:19:24;8.47;;;2.43;;
8986;SDS011;4529;51.360;12.474;2024-01-25T10:24:28;6.93;;;2.00;;
8986;SDS011;4529;51.360;12.474;2024-01-25T10:29:32;8.50;;;2.37;;
8986;SDS011;4529;51.360;12.474;2024-01-25T10:34:38;6.83;;;3.10;;
8986;SDS011;4529;51.360;12.474;2024-01-25T10:39:41;9.63;;;3.77;;
8986;SDS011;4529;51.360;12.474;2024-01-25T10:44:45;15.87;;;5.83;;
8986;SDS011;4529;51.360;12.474;2024-01-25T10:49:49;5.87;;;2.77;;
8986;SDS011;4529;51.360;12.474;2024-01-25T10:54:53;12.33;;;3.07;;
8986;SDS011;4529;51.360;12.474;2024-01-25T10:59:58;6.30;;;2.30;;
8986;SDS011;4529;51.360;12.474;2024-01-25T11:05:05;8.20;;;2.27;;
8986;SDS011;4529;51.360;12.474;2024-01-25T11:10:05;7.23;;;2.10;;
8986;SDS011;4529;51.360;12.474;2024-01-25T11:15:09;5.80;;;1.90;;
8986;SDS011;4529;51.360;12.474;2024-01-25T11:20:13;7.30;;;2.27;;
8986;SDS011;4529;51.360;12.474;2024-01-25T11:25:19;8.53;;;2.23;;
8986;SDS011;4529;51.360;12.474;2024-01-25T11:30:22;7.10;;;2.27;;
8986;SDS011;4529;51.360;12.474;2024-01-25T11:35:26;8.60;;;1.90;;
8986;SDS011;4529;51.360;12.474;2024-01-25T11:40:29;8.57;;;2.53;;
8986;SDS011;4529;51.360;12.474;2024-01-25T11:45:33;11.77;;;3.60;;
8986;SDS011;4529;51.360;12.474;2024-01-25T11:50:37;14.77;;;5.13;;
8986;SDS011;4529;51.360;12.474;2024-01-25T11:55:41;10.97;;;3.73;;
8986;SDS011;4529;51.360;12.474;2024-01-25T12:00:46;6.37;;;2.70;;
8986;SDS011;4529;51.360;12.474;2024-01-25T12:05:50;7.33;;;2.27;;
8986;SDS011;4529;51.360;12.474;2024-01-25T12:11:07;3.77;;;2.30;;
8986;SDS011;4529;51.360;12.474;2024-01-25T12:16:12;5.93;;;1.90;;
8986;SDS011;4529;51.360;12.474;2024-01-25T12:21:16;6.27;;;2.20;;
8986;SDS011;4529;51.360;12.474;2024-01-25T12:26:19;7.00;;;1.70;;
8986;SDS011;4529;51.360;12.474;2024-01-25T12:31:23;9.33;;;2.13;;
8986;SDS011;4529;51.360;12.474;2024-01-25T12:36:29;4.60;;;1.93;;
8986;SDS011;4529;51.360;12.474;2024-01-25T12:41:33;4.70;;;1.90;;
8986;SDS011;4529;51.360;12.474;2024-01-25T12:46:37;8.83;;;2.50;;
8986;SDS011;4529;51.360;12.474;2024-01-25T12:51:41;9.83;;;2.67;;
8986;SDS011;4529;51.360;12.474;2024-01-25T12:56:45;6.40;;;2.13;;
8986;SDS011;4529;51.360;12.474;2024-01-25T13:01:49;7.00;;;1.83;;
8986;SDS011;4529;51.360;12.474;2024-01-25T13:06:52;6.57;;;2.20;;
8986;SDS011;4529;51.360;12.474;2024-01-25T13:11:56;5.33;;;1.90;;
8986;SDS011;4529;51.360;12.474;2024-01-25T13:17:00;7.37;;;2.27;;
8986;SDS011;4529;51.360;12.474;2024-01-25T13:22:04;6.70;;;1.70;;
8986;SDS011;4529;51.360;12.474;2024-01-25T13:27:09;5.00;;;1.90;;
8986;SDS011;4529;51.360;12.474;2024-01-25T13:32:13;3.50;;;1.57;;
8986;SDS011;4529;51.360;12.474;2024-01-25T13:37:16;7.50;;;2.10;;
8986;SDS011;4529;51.360;12.474;2024-01-25T13:42:20;4.33;;;1.87;;
8986;SDS011;4529;51.360;12.474;2024-01-25T13:47:24;6.03;;;2.00;;
8986;SDS011;4529;51.360;12.474;2024-01-25T13:52:29;9.50;;;2.07;;
8986;SDS011;4529;51.360;12.474;2024-01-25T13:57:32;5.43;;;1.80;;
8986;SDS011;4529;51.360;12.474;2024-01-25T14:02:36;6.07;;;1.87;;
8986;SDS011;4529;51.360;12.474;2024-01-25T14:07:40;6.53;;;2.30;;
8986;SDS011;4529;51.360;12.474;2024-01-25T14:12:45;7.47;;;2.03;;
8986;SDS011;4529;51.360;12.474;2024-01-25T14:17:49;7.90;;;2.23;;
8986;SDS011;4529;51.360;12.474;2024-01-25T14:22:53;5.33;;;1.90;;
8986;SDS011;4529;51.360;12.474;2024-01-25T14:27:58;7.77;;;1.83;;
8986;SDS011;4529;51.360;12.474;2024-01-25T14:33:02;5.03;;;1.80;;
8986;SDS011;4529;51.360;12.474;2024-01-25T14:38:05;5.17;;;1.70;;
8986;SDS011;4529;51.360;12.474;2024-01-25T14:43:08;6.30;;;2.03;;
8986;SDS011;4529;51.360;12.474;2024-01-25T14:48:12;4.50;;;1.60;;
8986;SDS011;4529;51.360;12.474;2024-01-25T14:53:15;5.67;;;1.97;;
8986;SDS011;4529;51.360;12.474;2024-01-25T14:58:20;5.23;;;1.80;;
8986;SDS011;4529;51.360;12.474;2024-01-25T15:03:32;5.07;;;2.23;;
8986;SDS011;4529;51.360;12.474;2024-01-25T15:08:36;6.23;;;1.73;;
8986;SDS011;4529;51.360;12.474;2024-01-25T15:13:40;6.87;;;1.73;;
8986;SDS011;4529;51.360;12.474;2024-01-25T15:18:44;8.17;;;2.23;;
8986;SDS011;4529;51.360;12.474;2024-01-25T15:23:50;4.67;;;1.80;;
8986;SDS011;4529;51.360;12.474;2024-01-25T15:28:53;3.53;;;1.77;;
8986;SDS011;4529;51.360;12.474;2024-01-25T15:33:57;6.27;;;2.17;;
8986;SDS011;4529;51.360;12.474;2024-01-25T15:39:00;7.70;;;2.10;;
8986;SDS011;4529;51.360;12.474;2024-01-25T15:44:04;8.37;;;1.93;;
8986;SDS011;4529;51.360;12.474;2024-01-25T15:49:08;7.30;;;2.13;;
8986;SDS011;4529;51.360;12.474;2024-01-25T15:54:13;9.73;;;2.60;;
8986;SDS011;4529;51.360;12.474;2024-01-25T15:59:16;9.63;;;2.20;;
8986;SDS011;4529;51.360;12.474;2024-01-25T16:04:21;9.20;;;1.93;;
8986;SDS011;4529;51.360;12.474;2024-01-25T16:09:24;9.30;;;2.20;;
8986;SDS011;4529;51.360;12.474;2024-01-25T16:14:28;8.77;;;2.23;;
8986;SDS011;4529;51.360;12.474;2024-01-25T16:19:31;4.40;;;1.77;;
8986;SDS011;4529;51.360;12.474;2024-01-25T16:24:35;5.63;;;1.90;;
8986;SDS011;4529;51.360;12.474;2024-01-25T16:29:41;6.23;;;2.17;;
8986;SDS011;4529;51.360;12.474;2024-01-25T16:34:51;6.30;;;2.30;;
8986;SDS011;4529;51.360;12.474;2024-01-25T16:39:55;5.53;;;2.10;;
8986;SDS011;4529;51.360;12.474;2024-01-25T16:44:59;7.60;;;2.80;;
8986;SDS011;4529;51.360;12.474;2024-01-25T16:50:03;6.37;;;2.10;;
8986;SDS011;4529;51.360;12.474;2024-01-25T16:55:07;7.90;;;3.17;;
8986;SDS011;4529;51.360;12.474;2024-01-25T17:00:12;5.47;;;2.40;;
8986;SDS011;4529;51.360;12.474;2024-01-25T17:05:16;8.73;;;3.10;;
8986;SDS011;4529;51.360;12.474;2024-01-25T17:10:20;8.00;;;2.40;;
8986;SDS011;4529;51.360;12.474;2024-01-25T17:15:24;8.07;;;2.60;;
8986;SDS011;4529;51.360;12.474;2024-01-25T17:20:28;4.43;;;1.90;;
8986;SDS011;4529;51.360;12.474;2024-01-25T17:25:33;5.70;;;2.20;;
8986;SDS011;4529;51.360;12.474;2024-01-25T17:30:37;5.93;;;2.27;;
8986;SDS011;4529;51.360;12.474;2024-01-25T17:35:41;6.63;;;2.00;;
8986;SDS011;4529;51.360;12.474;2024-01-25T17:40:45;6.57;;;2.50;;
8986;SDS011;4529;51.360;12.474;2024-01-25T17:45:48;8.50;;;2.40;;
8986;SDS011;4529;51.360;12.474;2024-01-25T17:50:52;8.70;;;2.40;;
8986;SDS011;4529;51.360;12.474;2024-01-25T17:55:56;4.30;;;2.60;;
8986;SDS011;4529;51.360;12.474;2024-01-25T18:00:59;8.07;;;3.60;;
8986;SDS011;4529;51.360;12.474;2024-01-25T18:06:03;8.80;;;2.30;;
8986;SDS011;4529;51.360;12.474;2024-01-25T18:11:06;9.13;;;2.80;;
8986;SDS011;4529;51.360;12.474;2024-01-25T18:16:11;5.93;;;2.77;;
8986;SDS011;4529;51.360;12.474;2024-01-25T18:21:15;8.70;;;2.60;;
8986;SDS011;4529;51.360;12.474;2024-01-25T18:26:19;8.00;;;2.77;;
8986;SDS011;4529;51.360;12.474;2024-01-25T18:31:23;4.77;;;2.53;;
8986;SDS011;4529;51.360;12.474;2024-01-25T18:36:28;8.33;;;2.97;;
8986;SDS011;4529;51.360;12.474;2024-01-25T18:41:31;4.43;;;2.60;;
8986;SDS011;4529;51.360;12.474;2024-01-25T18:46:35;10.07;;;3.00;;
8986;SDS011;4529;51.360;12.474;2024-01-25T18:51:39;11.53;;;3.33;;
8986;SDS011;4529;51.360;12.474;2024-01-25T18:56:43;7.33;;;2.87;;
8986;SDS011;4529;51.360;12.474;2024-01-25T19:01:47;8.33;;;2.77;;
8986;SDS011;4529;51.360;12.474;2024-01-25T19:06:54;10.27;;;3.13;;
8986;SDS011;4529;51.360;12.474;2024-01-25T19:11:57;8.97;;;2.97;;
8986;SDS011;4529;51.360;12.474;2024-01-25T19:17:01;5.50;;;2.67;;
8986;SDS011;4529;51.360;12.474;2024-01-25T19:22:04;10.30;;;2.87;;
8986;SDS011;4529;51.360;12.474;2024-01-25T19:27:07;8.77;;;3.00;;
8986;SDS011;4529;51.360;12.474;2024-01-25T19:32:12;10.23;;;3.67;;
8986;SDS011;4529;51.360;12.474;2024-01-25T19:37:16;9.70;;;3.27;;
8986;SDS011;4529;51.360;12.474;2024-01-25T19:42:20;9.17;;;3.20;;
8986;SDS011;4529;51.360;12.474;2024-01-25T19:47:23;9.00;;;3.20;;
8986;SDS011;4529;51.360;12.474;2024-01-25T19:52:27;14.30;;;3.73;;
8986;SDS011;4529;51.360;12.474;2024-01-25T19:57:30;7.17;;;3.00;;
8986;SDS011;4529;51.360;12.474;2024-01-25T20:02:34;9.27;;;3.57;;
8986;SDS011;4529;51.360;12.474;2024-01-25T20:07:37;7.47;;;3.00;;
8986;SDS011;4529;51.360;12.474;2024-01-25T20:12:42;11.47;;;3.37;;
8986;SDS011;4529;51.360;12.474;2024-01-25T20:17:45;8.10;;;3.20;;
8986;SDS011;4529;51.360;12.474;2024-01-25T20:22:49;7.43;;;3.33;;
8986;SDS011;4529;51.360;12.474;2024-01-25T20:27:53;9.07;;;3.50;;
8986;SDS011;4529;51.360;12.474;2024-01-25T20:32:57;9.30;;;3.70;;
8986;SDS011;4529;51.360;12.474;2024-01-25T20:38:02;8.57;;;3.70;;
8986;SDS011;4529;51.360;12.474;2024-01-25T20:43:05;7.40;;;3.67;;
8986;SDS011;4529;51.360;12.474;2024-01-25T20:48:09;7.83;;;4.47;;
8986;SDS011;4529;51.360;12.474;2024-01-25T20:53:13;8.10;;;3.67;;
8986;SDS011;4529;51.360;12.474;2024-01-25T20:58:17;7.23;;;3.93;;
8986;SDS011;4529;51.360;12.474;2024-01-25T21:03:22;11.03;;;4.17;;
8986;SDS011;4529;51.360;12.474;2024-01-25T21:08:26;11.83;;;4.10;;
8986;SDS011;4529;51.360;12.474;2024-01-25T21:13:30;12.43;;;3.57;;
8986;SDS011;4529;51.360;12.474;2024-01-25T21:18:34;8.87;;;3.57;;
8986;SDS011;4529;51.360;12.474;2024-01-25T21:23:38;9.63;;;3.70;;
8986;SDS011;4529;51.360;12.474;2024-01-25T21:28:42;9.87;;;3.67;;
8986;SDS011;4529;51.360;12.474;2024-01-25T21:33:47;11.57;;;4.07;;
8986;SDS011;4529;51.360;12.474;2024-01-25T21:38:50;6.47;;;3.63;;
8986;SDS011;4529;51.360;12.474;2024-01-25T21:43:55;11.80;;;4.30;;
8986;SDS011;4529;51.360;12.474;2024-01-25T21:48:58;15.10;;;4.50;;
8986;SDS011;4529;51.360;12.474;2024-01-25T21:54:04;12.40;;;4.23;;
8986;SDS011;4529;51.360;12.474;2024-01-25T21:59:08;10.30;;;4.00;;
8986;SDS011;4529;51.360;12.474;2024-01-25T22:04:12;9.77;;;4.00;;
8986;SDS011;4529;51.360;12.474;2024-01-25T22:09:17;8.57;;;4.20;;
8986;SDS011;4529;51.360;12.474;2024-01-25T22:14:21;9.33;;;4.00;;
8986;SDS011;4529;51.360;12.474;2024-01-25T22:19:25;10.37;;;4.00;;
8986;SDS011;4529;51.360;12.474;2024-01-25T22:24:29;7.53;;;3.40;;
8986;SDS011;4529;51.360;12.474;2024-01-25T22:29:33;5.97;;;3.50;;
8986;SDS011;4529;51.360;12.474;2024-01-25T22:34:37;9.53;;;4.20;;
8986;SDS011;4529;51.360;12.474;2024-01-25T22:39:41;9.83;;;3.67;;
8986;SDS011;4529;51.360;12.474;2024-01-25T22:44:44;13.13;;;3.70;;
8986;SDS011;4529;51.360;12.474;2024-01-25T22:49:48;9.90;;;3.80;;
8986;SDS011;4529;51.360;12.474;2024-01-25T22:54:52;14.83;;;3.30;;
8986;SDS011;4529;51.360;12.474;2024-01-25T22:59:56;6.63;;;3.37;;
8986;SDS011;4529;51.360;12.474;2024-01-25T23:05:01;8.27;;;3.50;;
8986;SDS011;4529;51.360;12.474;2024-01-25T23:10:04;10.57;;;3.17;;
8986;SDS011;4529;51.360;12.474;2024-01-25T23:15:09;9.07;;;3.30;;
8986;SDS011;4529;51.360;12.474;2024-01-25T23:20:13;15.43;;;4.00;;
8986;SDS011;4529;51.360;12.474;2024-01-25T23:25:17;11.50;;;3.67;;
8986;SDS011;4529;51.360;12.474;2024-01-25T23:30:20;9.13;;;3.63;;
8986;SDS011;4529;51.360;12.474;2024-01-25T23:35:24;7.90;;;3.63;;
8986;SDS011;4529;51.360;12.474;2024-01-25T23:40:27;7.50;;;3.40;;
8986;SDS011;4529;51.360;12.474;2024-01-25T23:45:31;9.10;;;3.40;;
8986;SDS011;4529;51.360;12.474;2024-01-25T23:50:35;7.97;;;3.70;;
8986;SDS011;4529;51.360;12.474;2024-01-25T23:55:39;7.27;;;3.20;;
